Time;durP1;ratioP1;P1;durP2;ratioP2;P2;SDS_P1;SDS_P2;PMS_P1;PMS_P2;Temp;Humidity;BMP_temperature;BMP_pressure;BME280_temperature;BME280_humidity;BME280_pressure;Samples;Min_cycle;Max_cycle;Signal;HPM_P1;HPM_P2
2023/06/21 00:02:15;;;;;;;4.13;2.53;;;;;;;;;;5049537;28;20028;-73
2023/06/21 00:04:40;;;;;;;5.28;2.80;;;;;;;;;;5052117;28;20032;-73
2023/06/21 00:07:07;;;;;;;4.63;2.40;;;;;;;;;;5050852;28;20143;-74
2023/06/21 00:09:32;;;;;;;4.82;2.38;;;;;;;;;;5048313;28;20271;-73
2023/06/21 00:11:57;;;;;;;4.00;2.40;;;;;;;;;;5049582;28;20355;-73
2023/06/21 00:14:22;;;;;;;3.73;2.20;;;;;;;;;;5047483;28;20272;-73
2023/06/21 00:16:47;;;;;;;5.03;2.73;;;;;;;;;;5048420;28;20041;-74
2023/06/21 00:19:12;;;;;;;5.13;2.67;;;;;;;;;;5049127;28;20432;-74
2023/06/21 00:21:38;;;;;;;3.30;2.13;;;;;;;;;;5046603;28;20017;-73
2023/06/21 00:24:04;;;;;;;4.57;2.03;;;;;;;;;;5050641;28;20100;-73
2023/06/21 00:26:29;;;;;;;5.13;2.70;;;;;;;;;;5045985;28;20025;-71
2023/06/21 00:28:54;;;;;;;4.13;2.60;;;;;;;;;;5049643;28;20052;-74
2023/06/21 00:31:20;;;;;;;5.60;2.30;;;;;;;;;;5049915;28;20071;-71
2023/06/21 00:33:45;;;;;;;4.30;2.23;;;;;;;;;;5050870;28;20474;-74
2023/06/21 00:36:10;;;;;;;5.30;2.42;;;;;;;;;;5049267;28;20778;-73
2023/06/21 00:38:35;;;;;;;5.87;3.10;;;;;;;;;;5050280;28;20083;-74
2023/06/21 00:41:07;;;;;;;4.50;2.70;;;;;;;;;;5050999;28;20261;-73
2023/06/21 00:43:32;;;;;;;5.25;2.78;;;;;;;;;;5049324;28;20047;-73
2023/06/21 00:45:58;;;;;;;5.53;2.42;;;;;;;;;;5051329;28;20413;-74
2023/06/21 00:48:23;;;;;;;4.53;2.80;;;;;;;;;;5049859;28;20195;-73
2023/06/21 00:50:48;;;;;;;4.78;2.78;;;;;;;;;;5050095;28;20271;-73
2023/06/21 00:53:14;;;;;;;5.03;2.70;;;;;;;;;;5048928;28;20520;-74
2023/06/21 00:55:40;;;;;;;5.13;2.88;;;;;;;;;;5050106;28;20275;-73
2023/06/21 00:58:05;;;;;;;4.43;2.38;;;;;;;;;;5050785;28;20015;-72
2023/06/21 01:00:30;;;;;;;6.03;3.05;;;;;;;;;;5049851;28;20020;-73
2023/06/21 01:02:58;;;;;;;4.57;2.33;;;;;;;;;;5050829;28;20136;-71
2023/06/21 01:05:24;;;;;;;6.40;3.13;;;;;;;;;;5044731;28;20375;-73
2023/06/21 01:07:50;;;;;;;3.88;2.47;;;;;;;;;;5048133;28;20021;-74
2023/06/21 01:10:21;;;;;;;4.77;2.77;;;;;;;;;;5048834;28;20025;-74
2023/06/21 01:13:04;;;;;;;5.38;2.67;;;;;;;;;;5044612;28;20370;-74
2023/06/21 01:15:32;;;;;;;9.68;2.55;;;;;;;;;;5045169;28;20036;-73
2023/06/21 01:17:59;;;;;;;7.60;2.75;;;;;;;;;;5050418;28;20100;-74
2023/06/21 01:20:28;;;;;;;7.70;2.95;;;;;;;;;;5049572;28;20032;-72
2023/06/21 01:23:00;;;;;;;4.65;2.60;;;;;;;;;;5049700;28;20025;-71
2023/06/21 01:25:37;;;;;;;4.65;2.80;;;;;;;;;;5050507;28;20029;-73
2023/06/21 01:28:15;;;;;;;3.38;2.17;;;;;;;;;;5043125;28;20045;-71
2023/06/21 01:30:41;;;;;;;4.25;2.55;;;;;;;;;;5047193;28;20021;-71
2023/06/21 01:33:07;;;;;;;4.72;2.58;;;;;;;;;;5045410;28;20035;-72
2023/06/21 01:35:32;;;;;;;5.85;3.60;;;;;;;;;;5044937;28;20104;-72
2023/06/21 01:37:58;;;;;;;5.47;2.75;;;;;;;;;;5049716;28;20025;-74
2023/06/21 01:40:24;;;;;;;6.05;2.83;;;;;;;;;;5049700;28;20031;-70
2023/06/21 01:42:49;;;;;;;6.97;2.67;;;;;;;;;;5050369;28;20034;-71
2023/06/21 01:45:14;;;;;;;4.67;3.03;;;;;;;;;;5048807;28;20047;-72
2023/06/21 01:47:41;;;;;;;5.75;2.85;;;;;;;;;;5049275;28;20017;-70
2023/06/21 01:50:08;;;;;;;6.57;3.33;;;;;;;;;;5045405;28;20024;-76
2023/06/21 01:52:34;;;;;;;9.30;3.13;;;;;;;;;;5048738;28;20025;-71
2023/06/21 01:55:00;;;;;;;5.25;2.92;;;;;;;;;;5050090;28;20367;-71
2023/06/21 01:57:26;;;;;;;6.20;3.13;;;;;;;;;;5050005;28;20036;-71
2023/06/21 01:59:52;;;;;;;8.63;4.88;;;;;;;;;;5050206;28;20017;-71
2023/06/21 02:02:18;;;;;;;8.18;4.00;;;;;;;;;;5042453;28;20350;-71
2023/06/21 02:04:44;;;;;;;4.55;2.53;;;;;;;;;;5049228;28;20013;-70
2023/06/21 02:07:13;;;;;;;5.93;2.60;;;;;;;;;;5049524;28;20020;-71
2023/06/21 02:09:39;;;;;;;7.60;3.00;;;;;;;;;;5049613;28;20028;-70
2023/06/21 02:12:04;;;;;;;8.45;3.58;;;;;;;;;;5045932;28;20025;-72
2023/06/21 02:14:29;;;;;;;5.63;3.30;;;;;;;;;;5049654;28;20059;-74
2023/06/21 02:16:55;;;;;;;7.70;3.17;;;;;;;;;;5048209;28;20706;-71
2023/06/21 02:19:22;;;;;;;9.13;4.07;;;;;;;;;;5048706;28;20091;-73
2023/06/21 02:21:47;;;;;;;7.50;3.42;;;;;;;;;;5049517;28;20017;-71
2023/06/21 02:24:13;;;;;;;4.97;3.10;;;;;;;;;;5048473;28;20017;-72
2023/06/21 02:26:38;;;;;;;7.90;3.53;;;;;;;;;;5049615;28;20613;-71
2023/06/21 02:29:03;;;;;;;9.43;3.57;;;;;;;;;;5048690;28;20736;-71
2023/06/21 02:31:30;;;;;;;10.27;2.83;;;;;;;;;;5047862;28;20310;-71
2023/06/21 02:33:56;;;;;;;7.22;3.78;;;;;;;;;;5049101;28;20068;-74
2023/06/21 02:36:21;;;;;;;7.83;3.37;;;;;;;;;;5048308;28;20454;-75
2023/06/21 02:38:46;;;;;;;7.40;3.67;;;;;;;;;;5047406;28;20270;-73
2023/06/21 02:41:11;;;;;;;6.83;3.87;;;;;;;;;;5046840;28;20251;-73
2023/06/21 02:43:36;;;;;;;6.43;3.70;;;;;;;;;;5047876;28;20275;-72
2023/06/21 02:46:02;;;;;;;5.50;3.43;;;;;;;;;;5048804;28;20501;-72
2023/06/21 02:48:28;;;;;;;6.53;3.40;;;;;;;;;;5052505;28;20021;-73
2023/06/21 02:50:53;;;;;;;5.97;3.47;;;;;;;;;;5052872;28;20032;-71
2023/06/21 02:53:18;;;;;;;6.83;3.67;;;;;;;;;;5052366;28;20291;-73
2023/06/21 02:55:43;;;;;;;6.07;3.63;;;;;;;;;;5053092;28;20432;-71
2023/06/21 02:58:08;;;;;;;6.53;3.87;;;;;;;;;;5053410;28;20275;-71
2023/06/21 03:00:34;;;;;;;5.43;3.07;;;;;;;;;;5051456;28;20028;-71
2023/06/21 03:02:59;;;;;;;10.73;3.92;;;;;;;;;;5052648;28;20324;-74
2023/06/21 03:05:25;;;;;;;10.48;3.70;;;;;;;;;;5051175;28;20551;-75
2023/06/21 03:07:50;;;;;;;6.45;3.13;;;;;;;;;;5051804;28;20160;-71
2023/06/21 03:10:16;;;;;;;5.93;3.50;;;;;;;;;;5049029;28;20378;-71
2023/06/21 03:12:42;;;;;;;9.43;3.63;;;;;;;;;;5052901;28;20115;-74
2023/06/21 03:15:08;;;;;;;7.78;3.72;;;;;;;;;;5051802;28;20047;-72
2023/06/21 03:17:33;;;;;;;6.65;3.22;;;;;;;;;;5050930;28;20013;-74
2023/06/21 03:19:59;;;;;;;6.63;3.38;;;;;;;;;;5053530;28;20013;-70
2023/06/21 03:22:24;;;;;;;8.73;3.93;;;;;;;;;;5046838;28;20048;-71
2023/06/21 03:24:49;;;;;;;8.03;3.80;;;;;;;;;;5043801;28;20343;-71
2023/06/21 03:27:14;;;;;;;5.80;3.50;;;;;;;;;;5053623;28;20025;-71
2023/06/21 03:29:39;;;;;;;6.60;3.97;;;;;;;;;;5053232;28;20064;-71
2023/06/21 03:32:04;;;;;;;7.33;3.93;;;;;;;;;;5052195;28;20017;-74
2023/06/21 03:34:30;;;;;;;7.22;3.80;;;;;;;;;;5052716;28;20275;-74
2023/06/21 03:36:55;;;;;;;8.50;4.10;;;;;;;;;;5053455;28;20100;-71
2023/06/21 03:39:20;;;;;;;5.67;3.07;;;;;;;;;;5053239;28;20466;-73
2023/06/21 03:41:45;;;;;;;11.20;3.50;;;;;;;;;;5052692;28;20267;-71
2023/06/21 03:44:10;;;;;;;7.68;3.95;;;;;;;;;;5049387;28;20063;-71
2023/06/21 03:46:36;;;;;;;7.13;3.60;;;;;;;;;;5052406;28;20036;-71
2023/06/21 03:49:01;;;;;;;7.93;4.03;;;;;;;;;;5051530;28;20473;-71
2023/06/21 03:51:26;;;;;;;6.85;3.70;;;;;;;;;;5049602;28;20028;-74
2023/06/21 03:53:51;;;;;;;5.72;3.80;;;;;;;;;;5052777;28;20033;-73
2023/06/21 03:56:17;;;;;;;6.63;3.90;;;;;;;;;;5052828;28;20066;-73
2023/06/21 03:58:42;;;;;;;8.20;4.25;;;;;;;;;;5051171;28;20299;-73
2023/06/21 04:01:08;;;;;;;7.60;3.97;;;;;;;;;;5052539;28;20017;-73
2023/06/21 04:03:33;;;;;;;10.03;3.80;;;;;;;;;;5051135;28;20264;-73
2023/06/21 04:05:58;;;;;;;7.63;4.00;;;;;;;;;;5052794;28;20267;-74
2023/06/21 04:08:23;;;;;;;7.83;4.30;;;;;;;;;;5044502;28;20335;-71
2023/06/21 04:10:48;;;;;;;9.23;4.70;;;;;;;;;;5052641;28;20256;-74
2023/06/21 04:13:13;;;;;;;7.93;4.07;;;;;;;;;;5051348;28;20039;-71
2023/06/21 04:15:39;;;;;;;7.57;4.07;;;;;;;;;;5052260;28;20359;-74
2023/06/21 04:18:04;;;;;;;7.43;3.83;;;;;;;;;;5052661;28;20020;-71
2023/06/21 04:20:30;;;;;;;7.60;3.70;;;;;;;;;;5048963;28;20442;-73
2023/06/21 04:22:56;;;;;;;9.15;3.95;;;;;;;;;;5052452;28;20266;-73
2023/06/21 04:25:21;;;;;;;6.72;4.40;;;;;;;;;;5051636;28;20021;-70
2023/06/21 04:27:46;;;;;;;7.03;4.30;;;;;;;;;;5047975;28;20028;-71
2023/06/21 04:30:12;;;;;;;6.65;3.80;;;;;;;;;;5050411;28;20025;-70
2023/06/21 04:32:44;;;;;;;8.27;4.40;;;;;;;;;;5050751;28;20107;-71
2023/06/21 04:35:09;;;;;;;7.90;4.57;;;;;;;;;;5046411;28;20025;-71
2023/06/21 04:37:35;;;;;;;8.13;3.97;;;;;;;;;;5047167;28;20351;-71
2023/06/21 04:40:00;;;;;;;8.37;4.43;;;;;;;;;;5050030;28;20275;-72
2023/06/21 04:42:25;;;;;;;10.00;5.13;;;;;;;;;;5050737;28;20264;-71
2023/06/21 04:44:50;;;;;;;6.47;3.67;;;;;;;;;;5047550;28;20028;-73
2023/06/21 04:47:16;;;;;;;7.45;4.18;;;;;;;;;;5050826;28;20434;-71
2023/06/21 04:49:41;;;;;;;7.45;4.72;;;;;;;;;;5050540;28;20025;-71
2023/06/21 04:52:07;;;;;;;8.30;4.30;;;;;;;;;;5051277;28;20021;-73
2023/06/21 04:54:32;;;;;;;6.72;4.15;;;;;;;;;;5051603;28;20028;-70
2023/06/21 04:56:57;;;;;;;8.38;4.10;;;;;;;;;;5046781;28;20394;-73
2023/06/21 04:59:23;;;;;;;7.13;4.15;;;;;;;;;;5047456;28;20470;-74
2023/06/21 05:01:48;;;;;;;8.33;4.23;;;;;;;;;;5049202;28;20013;-71
2023/06/21 05:04:14;;;;;;;12.07;4.20;;;;;;;;;;5048676;28;20582;-74
2023/06/21 05:06:40;;;;;;;9.73;4.70;;;;;;;;;;5047047;28;20032;-73
2023/06/21 05:09:05;;;;;;;13.43;4.10;;;;;;;;;;5049294;28;20017;-72
2023/06/21 05:11:31;;;;;;;8.75;4.32;;;;;;;;;;5047561;28;20036;-71
2023/06/21 05:13:56;;;;;;;8.95;4.40;;;;;;;;;;5049015;28;20036;-73
2023/06/21 05:16:21;;;;;;;9.50;4.33;;;;;;;;;;5047275;28;20059;-71
2023/06/21 05:18:46;;;;;;;9.97;4.57;;;;;;;;;;5051629;28;20025;-74
2023/06/21 05:21:12;;;;;;;6.95;4.40;;;;;;;;;;5048348;28;20295;-74
2023/06/21 05:23:37;;;;;;;8.23;5.28;;;;;;;;;;5051195;28;20020;-72
2023/06/21 05:26:02;;;;;;;7.57;4.43;;;;;;;;;;5043916;28;20082;-71
2023/06/21 05:28:27;;;;;;;7.68;4.60;;;;;;;;;;5044701;28;20304;-71
2023/06/21 05:30:52;;;;;;;9.70;4.77;;;;;;;;;;5040245;28;20107;-72
2023/06/21 05:33:18;;;;;;;7.17;4.97;;;;;;;;;;5040012;28;20494;-71
2023/06/21 05:35:43;;;;;;;7.17;4.20;;;;;;;;;;5046477;28;20078;-71
2023/06/21 05:38:08;;;;;;;8.60;4.30;;;;;;;;;;5044871;28;20466;-74
2023/06/21 05:40:33;;;;;;;11.97;4.03;;;;;;;;;;5043788;28;20036;-71
2023/06/21 05:43:01;;;;;;;9.63;5.38;;;;;;;;;;5045979;28;20013;-71
2023/06/21 05:45:26;;;;;;;8.68;4.45;;;;;;;;;;5046559;28;20436;-74
2023/06/21 05:47:52;;;;;;;10.50;5.55;;;;;;;;;;5047428;28;20017;-73
2023/06/21 05:50:17;;;;;;;8.03;4.70;;;;;;;;;;5040318;28;20044;-71
2023/06/21 05:52:42;;;;;;;17.00;5.73;;;;;;;;;;5046044;28;20277;-74
2023/06/21 05:55:07;;;;;;;9.10;5.40;;;;;;;;;;5040513;28;20067;-71
2023/06/21 05:57:32;;;;;;;9.65;5.22;;;;;;;;;;5045705;28;20268;-72
2023/06/21 05:59:58;;;;;;;8.30;4.80;;;;;;;;;;5049542;28;20032;-70
2023/06/21 06:02:23;;;;;;;11.25;4.75;;;;;;;;;;5049245;28;20108;-74
2023/06/21 06:04:48;;;;;;;10.73;6.27;;;;;;;;;;5049420;28;20028;-71
2023/06/21 06:07:13;;;;;;;8.53;4.27;;;;;;;;;;5049483;28;20065;-73
2023/06/21 06:09:39;;;;;;;8.95;3.92;;;;;;;;;;5046484;28;20263;-71
2023/06/21 06:12:04;;;;;;;10.32;5.20;;;;;;;;;;5046613;28;20024;-71
2023/06/21 06:14:31;;;;;;;15.38;5.25;;;;;;;;;;5044236;28;20021;-72
2023/06/21 06:16:56;;;;;;;10.10;5.20;;;;;;;;;;5043203;28;20071;-71
2023/06/21 06:19:21;;;;;;;12.40;5.90;;;;;;;;;;5046183;28;20474;-71
2023/06/21 06:21:47;;;;;;;11.35;5.55;;;;;;;;;;5046741;28;20360;-71
2023/06/21 06:24:12;;;;;;;10.73;4.63;;;;;;;;;;5049409;28;20074;-71
2023/06/21 06:26:37;;;;;;;9.47;5.17;;;;;;;;;;5044644;28;20079;-71
2023/06/21 06:29:03;;;;;;;15.97;5.40;;;;;;;;;;5049299;28;20299;-71
2023/06/21 06:31:29;;;;;;;8.53;4.97;;;;;;;;;;5049770;28;20354;-74
2023/06/21 06:33:54;;;;;;;15.05;5.28;;;;;;;;;;5048505;28;20124;-72
2023/06/21 06:36:19;;;;;;;9.43;5.57;;;;;;;;;;5048366;28;20553;-70
2023/06/21 06:38:46;;;;;;;12.25;5.45;;;;;;;;;;5046704;28;20563;-71
2023/06/21 06:41:11;;;;;;;14.73;5.53;;;;;;;;;;5046489;28;20413;-73
2023/06/21 06:43:36;;;;;;;15.73;6.03;;;;;;;;;;5048405;28;20025;-75
2023/06/21 06:46:01;;;;;;;9.77;5.70;;;;;;;;;;5048582;28;20283;-70
2023/06/21 06:48:27;;;;;;;11.03;5.70;;;;;;;;;;5042982;28;20047;-71
2023/06/21 06:50:52;;;;;;;15.45;5.60;;;;;;;;;;5047839;28;20350;-70
2023/06/21 06:53:17;;;;;;;13.93;5.97;;;;;;;;;;5041437;28;20021;-71
2023/06/21 06:55:43;;;;;;;9.05;4.15;;;;;;;;;;5047523;28;20369;-73
2023/06/21 06:58:08;;;;;;;9.77;5.68;;;;;;;;;;5046015;28;20082;-71
2023/06/21 07:00:33;;;;;;;12.10;5.87;;;;;;;;;;5047481;28;20017;-70
2023/06/21 07:02:58;;;;;;;9.70;5.73;;;;;;;;;;5048026;28;20622;-71
2023/06/21 07:05:23;;;;;;;11.23;6.40;;;;;;;;;;5045799;28;20021;-70
2023/06/21 07:07:49;;;;;;;10.55;5.57;;;;;;;;;;5048621;28;20341;-70
2023/06/21 07:10:14;;;;;;;8.23;5.40;;;;;;;;;;5049651;28;20033;-70
2023/06/21 07:12:39;;;;;;;15.57;5.93;;;;;;;;;;5045614;28;20096;-71
2023/06/21 07:15:05;;;;;;;11.07;5.73;;;;;;;;;;5043571;28;20398;-74
2023/06/21 07:17:30;;;;;;;15.15;6.75;;;;;;;;;;5044007;28;20069;-70
2023/06/21 07:19:55;;;;;;;10.47;6.80;;;;;;;;;;5044007;28;20393;-71
2023/06/21 07:22:20;;;;;;;13.00;6.77;;;;;;;;;;5045867;28;20033;-70
2023/06/21 07:24:46;;;;;;;9.30;6.07;;;;;;;;;;5043247;28;20025;-70
2023/06/21 07:27:12;;;;;;;9.48;5.88;;;;;;;;;;5041417;28;20329;-71
2023/06/21 07:29:37;;;;;;;11.70;5.72;;;;;;;;;;5043492;28;20537;-72
2023/06/21 07:32:02;;;;;;;14.63;7.43;;;;;;;;;;5042439;28;20016;-72
2023/06/21 07:34:29;;;;;;;12.25;6.40;;;;;;;;;;5047827;28;20025;-70
2023/06/21 07:36:54;;;;;;;12.85;6.07;;;;;;;;;;5046111;28;20018;-72
2023/06/21 07:39:19;;;;;;;7.70;5.20;;;;;;;;;;5045739;28;20059;-69
2023/06/21 07:41:44;;;;;;;7.53;4.43;;;;;;;;;;5048401;28;20028;-72
2023/06/21 07:44:10;;;;;;;8.07;4.10;;;;;;;;;;5050582;28;20276;-70
2023/06/21 07:46:35;;;;;;;6.97;4.88;;;;;;;;;;5050417;28;20013;-70
2023/06/21 07:49:00;;;;;;;8.83;5.00;;;;;;;;;;5048924;28;20437;-74
2023/06/21 07:51:26;;;;;;;8.17;4.57;;;;;;;;;;5050320;28;20035;-72
2023/06/21 07:53:51;;;;;;;7.03;4.30;;;;;;;;;;5050206;28;20021;-74
2023/06/21 07:56:16;;;;;;;9.10;4.07;;;;;;;;;;5053053;28;20433;-70
2023/06/21 07:58:42;;;;;;;10.57;6.00;;;;;;;;;;5052178;28;20728;-70
2023/06/21 08:01:07;;;;;;;15.27;5.13;;;;;;;;;;5048914;28;20048;-72
2023/06/21 08:03:33;;;;;;;9.68;4.93;;;;;;;;;;5051415;28;20036;-70
2023/06/21 08:05:58;;;;;;;6.17;4.30;;;;;;;;;;5050697;28;20071;-70
2023/06/21 08:08:23;;;;;;;7.63;4.17;;;;;;;;;;5049582;28;20123;-70
2023/06/21 08:10:48;;;;;;;7.80;4.45;;;;;;;;;;5051674;28;20274;-70
2023/06/21 08:13:17;;;;;;;7.33;4.53;;;;;;;;;;5048951;28;20037;-71
2023/06/21 08:15:42;;;;;;;8.23;4.90;;;;;;;;;;5051617;28;20421;-73
2023/06/21 08:18:07;;;;;;;8.32;5.20;;;;;;;;;;5049247;28;20670;-70
2023/06/21 08:20:33;;;;;;;9.60;5.57;;;;;;;;;;5048770;28;20013;-73
2023/06/21 08:22:58;;;;;;;8.20;5.68;;;;;;;;;;5049271;28;20264;-71
2023/06/21 08:25:23;;;;;;;10.87;5.10;;;;;;;;;;5049687;28;20025;-70
2023/06/21 08:27:49;;;;;;;7.83;4.73;;;;;;;;;;5050712;28;20320;-73
2023/06/21 08:30:14;;;;;;;9.47;4.77;;;;;;;;;;5045459;28;20282;-72
2023/06/21 08:32:39;;;;;;;7.47;4.90;;;;;;;;;;5049970;28;20267;-71
2023/06/21 08:35:05;;;;;;;9.43;4.90;;;;;;;;;;5050775;28;20314;-75
2023/06/21 08:37:31;;;;;;;10.45;5.13;;;;;;;;;;5050213;28;20025;-71
2023/06/21 08:39:57;;;;;;;8.88;5.68;;;;;;;;;;5050898;28;20025;-70
2023/06/21 08:42:24;;;;;;;9.68;4.93;;;;;;;;;;5049800;28;20031;-73
2023/06/21 08:44:53;;;;;;;6.70;4.32;;;;;;;;;;5049520;28;20123;-70
2023/06/21 08:47:20;;;;;;;7.25;5.18;;;;;;;;;;5048002;28;20020;-72
2023/06/21 08:49:46;;;;;;;6.72;4.55;;;;;;;;;;5050376;28;20517;-70
2023/06/21 08:52:16;;;;;;;6.90;4.05;;;;;;;;;;5047431;28;20045;-70
2023/06/21 08:54:43;;;;;;;9.75;4.65;;;;;;;;;;5047828;28;20069;-70
2023/06/21 08:57:17;;;;;;;11.18;5.72;;;;;;;;;;5048960;28;20491;-70
2023/06/21 08:59:50;;;;;;;8.38;5.18;;;;;;;;;;5048254;28;20699;-71
2023/06/21 09:02:27;;;;;;;7.50;4.57;;;;;;;;;;5050881;28;20024;-70
2023/06/21 09:04:54;;;;;;;6.50;4.50;;;;;;;;;;5042598;28;20367;-70
2023/06/21 09:07:20;;;;;;;7.57;5.45;;;;;;;;;;5047187;28;20133;-72
2023/06/21 09:09:46;;;;;;;8.15;5.65;;;;;;;;;;5046820;28;20029;-72
2023/06/21 09:12:13;;;;;;;8.07;5.68;;;;;;;;;;5047590;28;20031;-72
2023/06/21 09:14:39;;;;;;;9.40;5.43;;;;;;;;;;5049025;28;20036;-70
2023/06/21 09:17:05;;;;;;;10.88;5.13;;;;;;;;;;5050892;28;20019;-72
2023/06/21 09:19:30;;;;;;;8.40;5.03;;;;;;;;;;5047434;28;20099;-71
2023/06/21 09:21:56;;;;;;;8.25;5.43;;;;;;;;;;5049555;28;20370;-70
2023/06/21 09:24:21;;;;;;;10.00;6.32;;;;;;;;;;5048764;28;20025;-70
2023/06/21 09:26:46;;;;;;;9.73;6.03;;;;;;;;;;5049021;28;20079;-70
2023/06/21 09:29:12;;;;;;;8.98;5.82;;;;;;;;;;5047726;28;20275;-69
2023/06/21 09:31:37;;;;;;;8.40;5.63;;;;;;;;;;5049265;28;20100;-70
2023/06/21 09:34:02;;;;;;;15.15;5.53;;;;;;;;;;5048088;28;20050;-71
2023/06/21 09:36:28;;;;;;;8.13;4.63;;;;;;;;;;5046053;28;20366;-69
2023/06/21 09:39:05;;;;;;;8.90;4.50;;;;;;;;;;5047515;28;20057;-70
2023/06/21 09:41:30;;;;;;;11.27;5.53;;;;;;;;;;5045844;28;20545;-70
2023/06/21 09:43:55;;;;;;;13.03;7.17;;;;;;;;;;5048153;28;20105;-72
2023/06/21 09:46:20;;;;;;;13.20;6.07;;;;;;;;;;5046125;28;20024;-71
2023/06/21 09:48:45;;;;;;;8.37;5.97;;;;;;;;;;5049611;28;20056;-71
2023/06/21 09:51:11;;;;;;;9.05;6.13;;;;;;;;;;5047025;28;20056;-72
2023/06/21 09:53:37;;;;;;;11.68;7.13;;;;;;;;;;5049695;28;20469;-73
2023/06/21 09:56:02;;;;;;;9.32;6.45;;;;;;;;;;5048826;28;20386;-70
2023/06/21 09:58:28;;;;;;;11.75;6.50;;;;;;;;;;5046262;28;20025;-70
2023/06/21 10:00:56;;;;;;;12.40;6.95;;;;;;;;;;5047368;28;20185;-71
2023/06/21 10:03:22;;;;;;;13.40;6.72;;;;;;;;;;5046143;28;20013;-70
2023/06/21 10:05:57;;;;;;;8.85;6.22;;;;;;;;;;5046890;28;20025;-70
2023/06/21 10:08:27;;;;;;;9.82;5.10;;;;;;;;;;5048013;28;20100;-71
2023/06/21 10:10:52;;;;;;;10.50;5.57;;;;;;;;;;5047677;28;20268;-70
2023/06/21 10:13:24;;;;;;;11.00;6.50;;;;;;;;;;5047443;28;20052;-72
2023/06/21 10:15:50;;;;;;;15.98;7.05;;;;;;;;;;5047208;28;20584;-70
2023/06/21 10:18:16;;;;;;;9.68;6.60;;;;;;;;;;5043878;28;20096;-70
2023/06/21 10:20:42;;;;;;;11.52;6.43;;;;;;;;;;5042127;28;20108;-70
2023/06/21 10:23:07;;;;;;;12.63;7.03;;;;;;;;;;5049732;28;20101;-73
2023/06/21 10:25:33;;;;;;;11.52;5.70;;;;;;;;;;5048047;28;20045;-70
2023/06/21 10:27:59;;;;;;;9.75;6.90;;;;;;;;;;5046370;28;20012;-72
2023/06/21 10:30:26;;;;;;;11.13;6.82;;;;;;;;;;5047631;28;20025;-70
2023/06/21 10:32:53;;;;;;;16.95;6.95;;;;;;;;;;5047878;28;20482;-70
2023/06/21 10:35:19;;;;;;;11.00;6.60;;;;;;;;;;5044298;28;20025;-74
2023/06/21 10:37:48;;;;;;;9.48;6.22;;;;;;;;;;5046850;28;20104;-70
2023/06/21 10:40:14;;;;;;;7.97;5.55;;;;;;;;;;5044245;28;20036;-70
2023/06/21 10:42:39;;;;;;;14.05;6.30;;;;;;;;;;5044902;28;20471;-71
2023/06/21 10:45:05;;;;;;;12.85;7.22;;;;;;;;;;5047173;28;20066;-74
2023/06/21 10:47:31;;;;;;;14.85;6.25;;;;;;;;;;5045236;28;20017;-70
2023/06/21 10:49:57;;;;;;;13.73;6.47;;;;;;;;;;5046126;28;20101;-70
2023/06/21 10:52:23;;;;;;;13.77;6.35;;;;;;;;;;5048742;28;20021;-72
2023/06/21 10:54:49;;;;;;;9.07;6.40;;;;;;;;;;5048164;28;20505;-70
2023/06/21 10:57:16;;;;;;;8.93;6.25;;;;;;;;;;5043024;28;20047;-71
2023/06/21 10:59:42;;;;;;;14.52;6.88;;;;;;;;;;5048323;28;20048;-70
2023/06/21 11:02:07;;;;;;;9.70;5.55;;;;;;;;;;5047307;28;20040;-73
2023/06/21 11:04:52;;;;;;;8.33;6.17;;;;;;;;;;5049175;28;20592;-70
2023/06/21 11:07:22;;;;;;;11.65;5.60;;;;;;;;;;5051714;28;20021;-74
2023/06/21 11:09:47;;;;;;;10.23;6.05;;;;;;;;;;5053306;28;20020;-70
2023/06/21 11:12:12;;;;;;;12.00;5.10;;;;;;;;;;5047928;28;20033;-70
2023/06/21 11:14:38;;;;;;;8.43;5.43;;;;;;;;;;5052328;28;20025;-72
2023/06/21 11:17:15;;;;;;;10.13;6.30;;;;;;;;;;5051555;28;20267;-70
2023/06/21 11:19:42;;;;;;;12.48;5.90;;;;;;;;;;5052198;28;20021;-72
2023/06/21 11:22:14;;;;;;;13.23;7.35;;;;;;;;;;5052395;28;20029;-70
2023/06/21 11:24:48;;;;;;;11.20;6.38;;;;;;;;;;5052122;28;20024;-70
2023/06/21 11:27:13;;;;;;;10.45;7.38;;;;;;;;;;5048000;28;20057;-73
2023/06/21 11:29:40;;;;;;;9.43;6.33;;;;;;;;;;5047400;28;20107;-70
2023/06/21 11:32:15;;;;;;;11.32;6.57;;;;;;;;;;5050390;28;20029;-73
2023/06/21 11:34:49;;;;;;;12.98;7.13;;;;;;;;;;5049521;28;20025;-70
2023/06/21 11:37:29;;;;;;;9.77;6.88;;;;;;;;;;5050077;28;20013;-70
2023/06/21 11:40:02;;;;;;;10.90;6.95;;;;;;;;;;5050052;28;20028;-72
2023/06/21 11:42:31;;;;;;;14.70;7.35;;;;;;;;;;5051721;28;20044;-71
2023/06/21 11:44:56;;;;;;;16.42;7.10;;;;;;;;;;5051567;28;20028;-70
2023/06/21 11:47:22;;;;;;;13.20;7.83;;;;;;;;;;5049431;28;20474;-73
2023/06/21 11:49:48;;;;;;;17.30;6.93;;;;;;;;;;5048617;28;20691;-72
2023/06/21 11:52:13;;;;;;;12.18;6.75;;;;;;;;;;5045049;28;20283;-73
2023/06/21 11:54:38;;;;;;;15.38;7.15;;;;;;;;;;5050946;28;20029;-72
2023/06/21 11:57:05;;;;;;;11.97;6.20;;;;;;;;;;5048179;28;20028;-71
2023/06/21 11:59:31;;;;;;;8.80;5.20;;;;;;;;;;5049653;28;20268;-71
2023/06/21 12:02:02;;;;;;;8.30;4.97;;;;;;;;;;5045570;28;20021;-75
2023/06/21 12:04:27;;;;;;;10.98;6.93;;;;;;;;;;5050827;28;20042;-71
2023/06/21 12:06:55;;;;;;;9.63;6.40;;;;;;;;;;5052187;28;20028;-70
2023/06/21 12:09:21;;;;;;;13.48;5.75;;;;;;;;;;5051784;28;20102;-71
2023/06/21 12:11:47;;;;;;;13.93;5.40;;;;;;;;;;5050940;28;20059;-71
2023/06/21 12:14:13;;;;;;;10.93;5.68;;;;;;;;;;5046877;28;20028;-70
2023/06/21 12:16:40;;;;;;;9.90;5.38;;;;;;;;;;5048014;28;20025;-72
2023/06/21 12:19:06;;;;;;;10.15;6.22;;;;;;;;;;5049008;28;20154;-72
2023/06/21 12:21:33;;;;;;;14.13;5.88;;;;;;;;;;5045783;28;20025;-71
2023/06/21 12:23:59;;;;;;;11.63;5.97;;;;;;;;;;5049683;28;20104;-70
2023/06/21 12:26:26;;;;;;;8.80;4.53;;;;;;;;;;5046818;28;20151;-71
2023/06/21 12:28:52;;;;;;;9.75;5.53;;;;;;;;;;5049983;28;20025;-70
2023/06/21 12:31:18;;;;;;;7.05;4.72;;;;;;;;;;5048338;28;20497;-70
2023/06/21 12:33:43;;;;;;;7.32;4.53;;;;;;;;;;5047626;28;20027;-70
2023/06/21 12:36:19;;;;;;;8.02;4.82;;;;;;;;;;5049764;28;20098;-75
2023/06/21 12:38:58;;;;;;;6.38;4.43;;;;;;;;;;5046595;28;20044;-73
2023/06/21 12:41:24;;;;;;;6.43;4.95;;;;;;;;;;5044607;28;20021;-71
2023/06/21 12:43:53;;;;;;;10.40;4.97;;;;;;;;;;5046578;28;20102;-70
2023/06/21 12:46:19;;;;;;;7.03;4.90;;;;;;;;;;5049411;28;20147;-71
2023/06/21 12:48:54;;;;;;;10.60;4.65;;;;;;;;;;5046970;28;20107;-70
2023/06/21 12:51:24;;;;;;;9.45;4.68;;;;;;;;;;5049711;28;20039;-71
2023/06/21 12:54:02;;;;;;;6.10;4.60;;;;;;;;;;5048428;28;20021;-73
2023/06/21 12:56:31;;;;;;;9.48;4.20;;;;;;;;;;5048864;28;20508;-70
2023/06/21 12:58:56;;;;;;;9.30;4.97;;;;;;;;;;5050041;28;20023;-70
2023/06/21 13:01:21;;;;;;;8.57;4.22;;;;;;;;;;5049091;28;20268;-73
2023/06/21 13:03:47;;;;;;;5.97;4.38;;;;;;;;;;5047968;28;20541;-70
2023/06/21 13:06:12;;;;;;;8.87;3.73;;;;;;;;;;5044705;28;20029;-72
2023/06/21 13:08:37;;;;;;;7.60;3.93;;;;;;;;;;5049302;28;20525;-74
2023/06/21 13:11:04;;;;;;;7.57;4.00;;;;;;;;;;5048815;28;20640;-71
2023/06/21 13:13:29;;;;;;;10.15;4.80;;;;;;;;;;5049355;28;20028;-70
2023/06/21 13:15:55;;;;;;;6.68;4.25;;;;;;;;;;5043664;28;20025;-70
2023/06/21 13:18:22;;;;;;;9.60;4.97;;;;;;;;;;5048955;28;20024;-74
2023/06/21 13:20:48;;;;;;;11.70;4.65;;;;;;;;;;5047082;28;20064;-71
2023/06/21 13:23:13;;;;;;;8.00;5.10;;;;;;;;;;5049259;28;20041;-71
2023/06/21 13:25:38;;;;;;;10.82;4.43;;;;;;;;;;5050058;28;20017;-71
2023/06/21 13:28:04;;;;;;;11.93;5.22;;;;;;;;;;5044970;28;20512;-70
2023/06/21 13:30:29;;;;;;;8.67;4.57;;;;;;;;;;5048028;28;20370;-70
2023/06/21 13:32:54;;;;;;;9.70;4.53;;;;;;;;;;5049783;28;20268;-70
2023/06/21 13:35:19;;;;;;;8.23;5.10;;;;;;;;;;5048207;28;20112;-73
2023/06/21 13:37:45;;;;;;;6.70;4.47;;;;;;;;;;5049757;28;20262;-71
2023/06/21 13:40:10;;;;;;;7.47;4.82;;;;;;;;;;5049208;28;20312;-70
2023/06/21 13:42:35;;;;;;;6.82;4.30;;;;;;;;;;5049384;28;20020;-71
2023/06/21 13:45:01;;;;;;;7.88;4.47;;;;;;;;;;5049203;28;20021;-71
2023/06/21 13:47:27;;;;;;;6.60;3.97;;;;;;;;;;5046346;28;20482;-71
2023/06/21 13:49:52;;;;;;;6.23;3.73;;;;;;;;;;5049874;28;20159;-71
2023/06/21 13:52:22;;;;;;;10.00;4.00;;;;;;;;;;5049437;28;20021;-73
2023/06/21 13:54:47;;;;;;;8.05;4.75;;;;;;;;;;5049302;28;20025;-72
2023/06/21 13:57:14;;;;;;;8.27;4.38;;;;;;;;;;5048347;28;20035;-75
2023/06/21 13:59:40;;;;;;;11.50;4.75;;;;;;;;;;5048984;28;20049;-72
2023/06/21 14:02:05;;;;;;;7.97;4.40;;;;;;;;;;5049559;28;20118;-73
2023/06/21 14:04:30;;;;;;;6.15;4.70;;;;;;;;;;5048162;28;20612;-71
2023/06/21 14:06:56;;;;;;;5.93;4.10;;;;;;;;;;5043861;28;20037;-73
2023/06/21 14:09:21;;;;;;;6.27;4.03;;;;;;;;;;5043393;28;20021;-70
2023/06/21 14:11:46;;;;;;;5.50;3.55;;;;;;;;;;5041966;28;20063;-71
2023/06/21 14:14:11;;;;;;;6.47;3.40;;;;;;;;;;5046950;28;20047;-74
2023/06/21 14:16:36;;;;;;;6.63;4.30;;;;;;;;;;5048866;28;20122;-70
2023/06/21 14:19:02;;;;;;;7.53;4.07;;;;;;;;;;5043467;28;20025;-72
2023/06/21 14:21:27;;;;;;;8.00;3.73;;;;;;;;;;5048767;28;20390;-71
2023/06/21 14:23:52;;;;;;;8.83;3.97;;;;;;;;;;5049151;28;20029;-71
2023/06/21 14:26:17;;;;;;;6.03;3.67;;;;;;;;;;5047639;28;20099;-70
2023/06/21 14:28:42;;;;;;;7.70;4.33;;;;;;;;;;5049012;28;20045;-73
2023/06/21 14:31:08;;;;;;;6.43;3.67;;;;;;;;;;5046187;28;20017;-71
2023/06/21 14:33:33;;;;;;;12.52;3.97;;;;;;;;;;5045423;28;20036;-71